createdAt,value
2019-04-03T00:01:25.490Z,100085.34
2019-04-03T00:03:55.275Z,100095.84
2019-04-03T00:06:24.949Z,100095.92
2019-04-03T00:08:54.677Z,100090.94
2019-04-03T00:11:24.434Z,100091.14
2019-04-03T00:13:54.128Z,100087.76
2019-04-03T00:16:23.797Z,100082.66
2019-04-03T00:18:53.447Z,100086.91
2019-04-03T00:21:23.165Z,100091.67
2019-04-03T00:23:53.135Z,100098.45
2019-04-03T00:26:23.022Z,100108.39
2019-04-03T00:28:52.935Z,100113.33
2019-04-03T00:31:23.417Z,100138.45
2019-04-03T00:33:53.891Z,100140.61
2019-04-03T00:36:23.914Z,100151.41
2019-04-03T00:38:54.284Z,100158.19
2019-04-03T00:41:25.076Z,100154.12
2019-04-03T00:43:55.095Z,100157.70
2019-04-03T00:46:25.216Z,100151.52
2019-04-03T00:48:55.727Z,100147.46
2019-04-03T00:51:27.407Z,100143.39
2019-04-03T00:53:58.666Z,100143.70
2019-04-03T00:56:28.343Z,100145.20
2019-04-03T00:58:58.010Z,100143.62
2019-04-03T01:01:27.777Z,100142.63
2019-04-03T01:03:58.858Z,100139.48
2019-04-03T01:06:29.077Z,100136.30
2019-04-03T01:08:59.875Z,100134.76
2019-04-03T01:11:30.639Z,100127.91
2019-04-03T01:14:01.669Z,100122.52
2019-04-03T01:16:33.096Z,100114.05
2019-04-03T01:19:05.194Z,100110.25
2019-04-03T01:21:37.237Z,100108.75
2019-04-03T01:24:08.295Z,100105.88
2019-04-03T01:26:40.409Z,100107.59
2019-04-03T01:29:10.643Z,100098.92
2019-04-03T01:31:41.256Z,100099.41
2019-04-03T01:34:11.099Z,100083.70
2019-04-03T01:36:40.876Z,100080.21
2019-04-03T01:39:10.752Z,100072.03
2019-04-03T01:41:40.493Z,100068.38
2019-04-03T01:44:10.263Z,100052.45
2019-04-03T01:46:40.135Z,100048.76
2019-04-03T01:49:10.055Z,100036.97
2019-04-03T01:51:39.765Z,100030.17
2019-04-03T01:54:09.459Z,100029.39
2019-04-03T01:56:39.188Z,100030.27
2019-04-03T01:59:08.892Z,100027.98
2019-04-03T02:01:39.137Z,100021.42
2019-04-03T02:04:09.114Z,100020.13
2019-04-03T02:06:38.802Z,100018.44
2019-04-03T02:09:10.414Z,100018.99
2019-04-03T02:11:40.177Z,100020.87
2019-04-03T02:14:09.869Z,100014.10
2019-04-03T02:16:39.589Z,100008.24
2019-04-03T02:19:09.351Z,100008.76
2019-04-03T02:21:40.095Z,100013.69
2019-04-03T02:24:10.114Z,100009.71
2019-04-03T02:26:39.949Z,100005.47
2019-04-03T02:29:09.697Z,99996.13
2019-04-03T02:31:39.706Z,99997.58
2019-04-03T02:34:09.551Z,100000.71
2019-04-03T02:36:43.313Z,99998.83
2019-04-03T02:39:10.990Z,100000.55
2019-04-03T02:41:40.738Z,100000.62
2019-04-03T02:44:10.753Z,99996.67
2019-04-03T02:46:40.515Z,99993.08
2019-04-03T02:49:11.060Z,99992.09
2019-04-03T02:51:43.699Z,99993.48
2019-04-03T02:54:29.840Z,99985.05
2019-04-03T02:56:59.803Z,99990.98
2019-04-03T02:59:29.752Z,99984.99
2019-04-03T03:01:59.536Z,99979.47
2019-04-03T03:04:29.410Z,99975.03
2019-04-03T03:06:59.137Z,99971.02
2019-04-03T03:09:30.761Z,99979.16
2019-04-03T03:12:01.990Z,99985.24
2019-04-03T03:14:31.941Z,99986.86
2019-04-03T03:17:02.221Z,99995.23
2019-04-03T03:19:33.374Z,99984.93
2019-04-03T03:22:04.017Z,99990.17
2019-04-03T03:24:38.721Z,99975.71
2019-04-03T03:27:10.273Z,99975.09
2019-04-03T03:29:40.975Z,99978.08
2019-04-03T03:32:18.708Z,99958.23
2019-04-03T03:34:54.046Z,99936.14
2019-04-03T03:37:15.621Z,99935.33
2019-04-03T03:39:45.873Z,99937.28
2019-04-03T03:42:16.406Z,99945.48
2019-04-03T03:44:46.992Z,99940.34
2019-04-03T03:47:18.354Z,99944.22
2019-04-03T03:49:50.896Z,99944.67
2019-04-03T03:52:22.199Z,99944.41
2019-04-03T03:54:52.554Z,99952.52
2019-04-03T03:57:22.854Z,99939.50
2019-04-03T03:59:52.890Z,99945.78
2019-04-03T04:02:23.794Z,99938.67
2019-04-03T04:04:53.650Z,99943.98
2019-04-03T04:07:23.831Z,99955.77
2019-04-03T04:09:54.111Z,99959.41
2019-04-03T04:12:24.672Z,99964.19
2019-04-03T04:14:56.879Z,99960.04
2019-04-03T04:17:27.031Z,99965.55
2019-04-03T04:19:57.769Z,99963.57
2019-04-03T04:22:28.252Z,99970.04
2019-04-03T04:25:00.837Z,99971.54
2019-04-03T04:27:33.470Z,99967.91
2019-04-03T04:30:02.445Z,99961.44
2019-04-03T04:32:32.275Z,99963.33
2019-04-03T04:35:01.999Z,99959.20
2019-04-03T04:37:31.713Z,99957.08
2019-04-03T04:40:01.510Z,99961.03
2019-04-03T04:42:31.453Z,99962.06
2019-04-03T04:45:02.673Z,99963.16
2019-04-03T04:47:32.370Z,99962.55
2019-04-03T04:50:02.201Z,99969.09
2019-04-03T04:52:31.927Z,99976.84
2019-04-03T04:55:02.789Z,99978.43
2019-04-03T04:57:32.568Z,99982.50
2019-04-03T05:00:02.379Z,99982.50
2019-04-03T05:02:32.262Z,99985.80
2019-04-03T05:05:01.934Z,99991.27
2019-04-03T05:07:31.613Z,99985.45
2019-04-03T05:10:01.319Z,99996.06
2019-04-03T05:12:31.146Z,99996.31
2019-04-03T05:15:00.997Z,100002.14
2019-04-03T05:17:30.766Z,100002.20
2019-04-03T05:20:00.496Z,100005.60
2019-04-03T05:22:31.162Z,100012.33
2019-04-03T05:25:00.892Z,100008.41
2019-04-03T05:27:33.334Z,100004.86
2019-04-03T05:30:02.136Z,100012.95
2019-04-03T05:32:31.974Z,100014.59
2019-04-03T05:35:01.696Z,100014.82
2019-04-03T05:37:31.662Z,100018.12
2019-04-03T05:40:01.385Z,100012.45
2019-04-03T05:42:31.086Z,100013.75
2019-04-03T05:45:03.629Z,100018.09
2019-04-03T05:47:32.200Z,100018.17
2019-04-03T05:50:02.299Z,100015.32
2019-04-03T05:52:33.152Z,100019.91
2019-04-03T05:55:03.811Z,100023.14
2019-04-03T05:57:33.633Z,100025.05
2019-04-03T06:00:06.138Z,100031.75
2019-04-03T06:02:35.176Z,100036.03
2019-04-03T06:05:06.708Z,100034.80
2019-04-03T06:07:36.886Z,100033.48
2019-04-03T06:10:07.733Z,100035.23
2019-04-03T06:12:37.848Z,100039.16
2019-04-03T06:15:10.257Z,100047.20
2019-04-03T06:17:40.298Z,100050.51
2019-04-03T06:20:11.590Z,100052.77
2019-04-03T06:22:41.329Z,100063.84
2019-04-03T06:25:13.986Z,100057.98
2019-04-03T06:27:45.756Z,100064.36
2019-04-03T06:30:15.609Z,100061.80
2019-04-03T06:32:45.462Z,100063.09
2019-04-03T06:35:16.238Z,100062.11
2019-04-03T06:37:45.977Z,100054.77
2019-04-03T06:40:15.961Z,100061.25
2019-04-03T06:42:45.759Z,100070.28
2019-04-03T06:45:16.157Z,100057.34
2019-04-03T06:47:46.960Z,100059.69
2019-04-03T06:50:17.555Z,100059.55
2019-04-03T06:52:47.755Z,100055.69
2019-04-03T06:55:17.421Z,100046.80
2019-04-03T06:57:47.391Z,100047.67
2019-04-03T07:00:17.316Z,100052.20
2019-04-03T07:02:47.026Z,100050.59
2019-04-03T07:05:16.724Z,100047.86
2019-04-03T07:07:46.439Z,100045.20
2019-04-03T07:10:25.046Z,100050.15
2019-04-03T07:12:48.122Z,100055.22
2019-04-03T07:15:18.436Z,100052.05
2019-04-03T07:17:48.203Z,100048.12
2019-04-03T07:20:20.114Z,100053.83
2019-04-03T07:22:49.580Z,100047.73
2019-04-03T07:25:19.451Z,100049.20
2019-04-03T07:27:49.157Z,100048.27
2019-04-03T07:30:19.973Z,100062.47
2019-04-03T07:32:50.554Z,100065.06
2019-04-03T07:35:20.236Z,100071.48
2019-04-03T07:37:50.988Z,100074.66
2019-04-03T07:40:22.304Z,100083.20
2019-04-03T07:42:52.266Z,100087.25
2019-04-03T07:45:22.082Z,100093.33
2019-04-03T07:47:51.798Z,100092.06
2019-04-03T07:50:21.583Z,100090.79
2019-04-03T07:52:51.283Z,100093.95
2019-04-03T07:55:23.543Z,100093.23
2019-04-03T07:57:52.385Z,100104.03
2019-04-03T08:00:22.672Z,100098.91
2019-04-03T08:02:52.663Z,100104.45
2019-04-03T08:05:22.359Z,100105.23
2019-04-03T08:07:52.053Z,100106.28
2019-04-03T08:10:21.859Z,100099.09
2019-04-03T08:12:51.888Z,100098.30
2019-04-03T08:15:21.589Z,100084.91
2019-04-03T08:17:51.521Z,100083.89
2019-04-03T08:20:21.574Z,100071.96
2019-04-03T08:22:51.276Z,100074.82
2019-04-03T08:25:20.985Z,100078.84
2019-04-03T08:27:50.756Z,100080.96
2019-04-03T08:30:21.284Z,100083.09
2019-04-03T08:32:51.080Z,100084.45
2019-04-03T08:35:23.643Z,100088.27
2019-04-03T08:37:52.304Z,100090.94
2019-04-03T08:40:22.039Z,100094.87
2019-04-03T08:42:52.226Z,100089.88
2019-04-03T08:45:22.275Z,100090.51
2019-04-03T08:47:51.916Z,100085.23
2019-04-03T08:50:21.783Z,100089.03
2019-04-03T08:52:51.485Z,100084.16
2019-04-03T08:55:21.227Z,100089.28
2019-04-03T08:57:52.469Z,100088.48
2019-04-03T09:00:22.674Z,100090.00
2019-04-03T09:02:52.496Z,100086.75
2019-04-03T09:05:22.376Z,100088.98
2019-04-03T09:07:55.261Z,100104.42
2019-04-03T09:10:23.748Z,100107.67
2019-04-03T09:12:53.592Z,100113.30
2019-04-03T09:15:23.467Z,100109.11
2019-04-03T09:17:53.416Z,100103.65
2019-04-03T09:20:23.241Z,100092.25
2019-04-03T09:22:54.015Z,100095.07
2019-04-03T09:25:24.277Z,100093.80
2019-04-03T09:27:53.954Z,100099.05
2019-04-03T09:30:24.412Z,100098.92
2019-04-03T09:32:54.450Z,100088.51
2019-04-03T09:35:24.360Z,100070.24
2019-04-03T09:37:54.315Z,100055.27
2019-04-03T09:40:24.608Z,100048.63
2019-04-03T09:42:54.436Z,100036.09
2019-04-03T09:45:24.150Z,100022.98
2019-04-03T09:47:53.832Z,100011.34
2019-04-03T09:50:23.788Z,100010.27
2019-04-03T09:52:54.883Z,100005.47
2019-04-03T09:55:25.079Z,99998.42
2019-04-03T09:57:54.782Z,100003.70
2019-04-03T10:00:26.599Z,100008.06
2019-04-03T10:02:56.396Z,100002.52
2019-04-03T10:05:28.349Z,100011.80
2019-04-03T10:07:57.527Z,100013.07
2019-04-03T10:10:27.449Z,100017.14
2019-04-03T10:12:57.208Z,100024.20
2019-04-03T10:15:27.274Z,100028.41
2019-04-03T10:17:57.131Z,100019.08
2019-04-03T10:20:27.140Z,100026.58
2019-04-03T10:22:57.047Z,100025.30
2019-04-03T10:25:26.966Z,100028.91
2019-04-03T10:27:56.864Z,100024.90
2019-04-03T10:30:27.101Z,100025.31
2019-04-03T10:32:59.546Z,100028.87
2019-04-03T10:35:28.614Z,100016.67
2019-04-03T10:37:58.301Z,100008.95
2019-04-03T10:40:28.002Z,99997.51
2019-04-03T10:43:00.082Z,99995.23
2019-04-03T10:45:29.510Z,99995.23
2019-04-03T10:47:59.256Z,99997.12
2019-04-03T10:50:28.985Z,99991.24
2019-04-03T10:52:59.250Z,99973.28
2019-04-03T10:55:29.594Z,99978.66
2019-04-03T10:58:01.583Z,99963.27
2019-04-03T11:00:30.926Z,99953.27
2019-04-03T11:03:00.845Z,99961.83
2019-04-03T11:05:30.683Z,99951.89
2019-04-03T11:08:00.455Z,99959.69
2019-04-03T11:10:30.163Z,99967.41
2019-04-03T11:13:00.904Z,99960.63
2019-04-03T11:15:31.422Z,99963.77
2019-04-03T11:18:01.096Z,99964.20
2019-04-03T11:20:30.809Z,99959.72
2019-04-03T11:23:06.364Z,99957.45
2019-04-03T11:25:31.997Z,99955.20
2019-04-03T11:28:05.126Z,99961.56
2019-04-03T11:30:33.178Z,99966.52
2019-04-03T11:33:02.961Z,99959.64
2019-04-03T11:35:32.786Z,99949.47
2019-04-03T11:38:13.088Z,99953.50
2019-04-03T11:40:34.013Z,99948.53
2019-04-03T11:43:03.699Z,99932.63
2019-04-03T11:45:33.729Z,99938.27
2019-04-03T11:48:03.741Z,99940.86
2019-04-03T11:50:33.552Z,99938.98
2019-04-03T11:53:07.144Z,99939.80
2019-04-03T11:55:34.739Z,99940.83
2019-04-03T11:58:04.791Z,99942.83
2019-04-03T12:00:39.250Z,99932.07
2019-04-03T12:03:10.713Z,99932.23
2019-04-03T12:05:40.458Z,99929.46
2019-04-03T12:08:12.427Z,99936.72
2019-04-03T12:10:41.766Z,99934.63
2019-04-03T12:13:13.560Z,99936.36
2019-04-03T12:15:42.874Z,99932.14
2019-04-03T12:18:12.871Z,99933.30
2019-04-03T12:20:44.887Z,99933.58
2019-04-03T12:23:14.042Z,99921.08
2019-04-03T12:25:43.742Z,99915.92
2019-04-03T12:28:13.407Z,99914.14
2019-04-03T12:30:43.704Z,99910.17
2019-04-03T12:33:13.671Z,99913.69
2019-04-03T12:35:43.403Z,99918.61
2019-04-03T12:38:13.540Z,99920.94
2019-04-03T12:40:44.562Z,99929.46
2019-04-03T12:43:14.403Z,99938.13
2019-04-03T12:45:45.343Z,99930.03
2019-04-03T12:48:17.159Z,99938.22
2019-04-03T12:50:46.870Z,99932.82
2019-04-03T12:53:17.317Z,99938.89
2019-04-03T12:55:47.117Z,99947.55
2019-04-03T12:58:16.804Z,99943.34
2019-04-03T13:00:46.780Z,99948.48
2019-04-03T13:03:16.949Z,99950.55
2019-04-03T13:05:48.605Z,99952.63
2019-04-03T13:08:20.266Z,99945.98
2019-04-03T13:10:49.795Z,99936.58
2019-04-03T13:13:19.454Z,99926.54
2019-04-03T13:15:49.380Z,99927.63
2019-04-03T13:18:20.087Z,99932.04
2019-04-03T13:20:49.943Z,99930.04
2019-04-03T13:23:20.199Z,99929.83
2019-04-03T13:25:51.007Z,99925.09
2019-04-03T13:28:21.632Z,99923.09
2019-04-03T13:30:51.346Z,99930.59
2019-04-03T13:33:21.153Z,99928.02
2019-04-03T13:35:50.975Z,99923.58
2019-04-03T13:38:20.819Z,99920.64
2019-04-03T13:40:50.986Z,99917.73
2019-04-03T13:43:21.924Z,99908.94
2019-04-03T13:45:52.265Z,99908.60
2019-04-03T13:48:22.003Z,99910.26
2019-04-03T13:50:54.181Z,99918.09
2019-04-03T13:53:25.391Z,99919.55
2019-04-03T13:55:54.653Z,99912.74
2019-04-03T13:58:27.024Z,99911.79
2019-04-03T14:01:00.790Z,99913.66
2019-04-03T14:03:27.946Z,99906.55
2019-04-03T14:05:58.141Z,99909.70
2019-04-03T14:08:28.041Z,99905.72
2019-04-03T14:10:58.851Z,99896.81
2019-04-03T14:13:28.873Z,99888.14
2019-04-03T14:15:58.578Z,99888.39
2019-04-03T14:18:28.461Z,99881.84
2019-04-03T14:20:58.225Z,99874.13
2019-04-03T14:23:27.904Z,99868.41
2019-04-03T14:26:05.584Z,99861.78
2019-04-03T14:28:28.997Z,99864.36
2019-04-03T14:30:58.704Z,99862.59
2019-04-03T14:33:41.271Z,99852.48
2019-04-03T14:36:00.146Z,99857.97
2019-04-03T14:38:32.385Z,99847.56
2019-04-03T14:41:03.082Z,99839.83
2019-04-03T14:43:34.436Z,99842.37
2019-04-03T14:46:04.960Z,99836.50
2019-04-03T14:48:34.813Z,99840.23
2019-04-03T14:51:06.404Z,99828.89
2019-04-03T14:53:36.214Z,99831.45
2019-04-03T14:56:06.213Z,99826.48
2019-04-03T14:58:37.117Z,99828.34
2019-04-03T15:01:06.942Z,99820.39
2019-04-03T15:03:37.115Z,99818.19
2019-04-03T15:06:06.978Z,99813.48
2019-04-03T15:08:37.018Z,99815.34
2019-04-03T15:11:06.834Z,99809.12
2019-04-03T15:13:36.729Z,99807.48
2019-04-03T15:16:06.861Z,99802.25
2019-04-03T15:18:37.160Z,99788.48
2019-04-03T15:21:07.224Z,99792.16
2019-04-03T15:23:40.432Z,99784.64
2019-04-03T15:26:08.321Z,99785.09
2019-04-03T15:28:38.361Z,99773.30
2019-04-03T15:31:08.160Z,99776.18
2019-04-03T15:33:37.877Z,99764.92
2019-04-03T15:36:07.954Z,99764.17
2019-04-03T15:38:37.647Z,99760.64
2019-04-03T15:41:07.320Z,99757.81
2019-04-03T15:43:37.194Z,99760.23
2019-04-03T15:46:06.893Z,99762.33
2019-04-03T15:48:38.531Z,99762.45
2019-04-03T15:51:08.720Z,99758.12
2019-04-03T15:53:38.416Z,99757.67
2019-04-03T15:56:11.827Z,99756.73
2019-04-03T15:58:39.735Z,99752.20
2019-04-03T16:01:09.515Z,99744.59
2019-04-03T16:03:39.214Z,99746.36
2019-04-03T16:06:08.976Z,99749.16
2019-04-03T16:08:39.078Z,99745.05
2019-04-03T16:11:09.151Z,99741.53
2019-04-03T16:13:38.924Z,99747.74
2019-04-03T16:16:08.708Z,99747.36
2019-04-03T16:18:39.023Z,99738.47
2019-04-03T16:21:08.857Z,99736.95
2019-04-03T16:23:38.775Z,99722.80
2019-04-03T16:26:08.863Z,99732.45
2019-04-03T16:28:38.736Z,99733.15
2019-04-03T16:31:08.489Z,99736.88
2019-04-03T16:33:38.196Z,99746.45
2019-04-03T16:42:21.363Z,99729.37
2019-04-03T16:44:53.201Z,99723.62
2019-04-03T16:47:25.463Z,99726.87
2019-04-03T16:49:55.989Z,99722.27
2019-04-03T16:52:26.057Z,99715.72
2019-04-03T16:54:55.997Z,99718.13
2019-04-03T16:57:26.476Z,99710.62
2019-04-03T16:59:56.573Z,99710.02
2019-04-03T17:02:29.143Z,99715.23
2019-04-03T17:04:58.469Z,99715.30
2019-04-03T17:07:28.536Z,99713.92
2019-04-03T17:09:58.279Z,99716.52
2019-04-03T17:12:28.161Z,99711.80
2019-04-03T17:14:58.121Z,99707.19
2019-04-03T17:17:27.993Z,99708.62
2019-04-03T17:19:57.970Z,99704.13
2019-04-03T17:22:28.188Z,99697.17
2019-04-03T17:24:58.049Z,99698.86
2019-04-03T17:27:30.171Z,99699.94
2019-04-03T17:29:59.619Z,99693.80
2019-04-03T17:32:30.835Z,99684.62
2019-04-03T17:35:01.432Z,99693.87
2019-04-03T17:37:31.151Z,99693.98
2019-04-03T17:40:01.038Z,99696.23
2019-04-03T17:42:31.446Z,99699.62
2019-04-03T17:45:35.262Z,99690.90
2019-04-03T17:48:05.747Z,99698.62
2019-04-03T17:50:35.487Z,99700.60
2019-04-03T17:53:06.640Z,99697.48
2019-04-03T17:55:37.777Z,99697.51
2019-04-03T17:58:07.566Z,99703.33
2019-04-03T18:00:37.453Z,99704.46
2019-04-03T18:03:07.188Z,99699.04
2019-04-03T18:05:37.043Z,99703.73
2019-04-03T18:08:07.269Z,99707.89
2019-04-03T18:10:37.483Z,99709.61
2019-04-03T18:13:07.443Z,99707.03
2019-04-03T18:15:37.193Z,99707.84
2019-04-03T18:18:07.072Z,99707.24
2019-04-03T18:20:37.408Z,99709.16
2019-04-03T18:23:07.351Z,99706.97
2019-04-03T18:25:37.086Z,99709.80
2019-04-03T18:28:06.951Z,99709.55
2019-04-03T18:30:36.816Z,99715.98
2019-04-03T18:33:06.686Z,99712.00
2019-04-03T18:35:36.599Z,99700.88
2019-04-03T18:38:08.044Z,99706.84
2019-04-03T18:40:41.967Z,99694.36
2019-04-03T18:43:11.975Z,99692.86
2019-04-03T18:45:41.861Z,99686.68
2019-04-03T18:48:12.707Z,99673.31
2019-04-03T18:50:42.671Z,99672.23
2019-04-03T18:53:12.576Z,99672.38
2019-04-03T18:55:44.629Z,99663.53
2019-04-03T18:58:14.139Z,99653.95
2019-04-03T19:00:44.074Z,99649.45
2019-04-03T19:03:14.042Z,99648.80
2019-04-03T19:05:43.978Z,99647.31
2019-04-03T19:08:17.793Z,99644.77
2019-04-03T19:10:47.272Z,99642.32
2019-04-03T19:13:17.387Z,99640.75
2019-04-03T19:15:47.405Z,99639.85
2019-04-03T19:18:19.850Z,99634.09
2019-04-03T19:20:48.915Z,99623.93
2019-04-03T19:23:18.729Z,99627.87
2019-04-03T19:25:48.831Z,99629.52
2019-04-03T19:28:18.827Z,99631.16
2019-04-03T19:30:49.616Z,99633.04
2019-04-03T19:33:19.687Z,99627.61
2019-04-03T19:35:49.820Z,99621.73
2019-04-03T19:38:19.930Z,99621.81
2019-04-03T19:40:49.888Z,99622.37
2019-04-03T19:43:19.942Z,99618.44
2019-04-03T19:45:51.672Z,99615.39
2019-04-03T19:48:21.645Z,99603.25
2019-04-03T19:50:51.410Z,99600.31
2019-04-03T19:53:21.370Z,99606.20
2019-04-03T19:55:54.479Z,99601.71
2019-04-03T19:58:23.367Z,99585.53
2019-04-03T20:00:53.247Z,99584.73
2019-04-03T20:03:23.236Z,99585.29
2019-04-03T20:05:55.076Z,99592.26
2019-04-03T20:08:24.974Z,99586.44
2019-04-03T20:10:54.963Z,99580.37
2019-04-03T20:13:27.859Z,99583.25
2019-04-03T20:15:56.582Z,99583.07
2019-04-03T20:18:26.641Z,99579.79
2019-04-03T20:20:56.567Z,99583.97
2019-04-03T20:23:26.376Z,99583.66
2019-04-03T20:25:56.179Z,99581.18
2019-04-03T20:28:26.247Z,99575.61
2019-04-03T20:30:56.158Z,99566.44
2019-04-03T20:33:26.182Z,99556.25
2019-04-03T20:35:56.149Z,99540.49
2019-04-03T20:38:27.512Z,99533.69
2019-04-03T20:40:57.732Z,99540.78
2019-04-03T20:43:27.488Z,99534.81
2019-04-03T20:45:57.357Z,99522.27
2019-04-03T20:48:28.301Z,99514.16
2019-04-03T20:50:58.671Z,99518.23
2019-04-03T20:53:28.537Z,99514.77
2019-04-03T20:55:58.741Z,99514.91
2019-04-03T20:58:28.535Z,99512.86
2019-04-03T21:01:06.861Z,99508.86
2019-04-03T21:03:30.048Z,99510.43
2019-04-03T21:05:59.932Z,99499.42
2019-04-03T21:08:31.552Z,99494.83
2019-04-03T21:11:02.378Z,99486.70
2019-04-03T21:13:32.681Z,99492.53
2019-04-03T21:16:02.769Z,99490.23
2019-04-03T21:18:32.608Z,99485.63
2019-04-03T21:21:02.588Z,99481.13
2019-04-03T21:23:33.507Z,99477.09
2019-04-03T21:26:06.613Z,99478.00
2019-04-03T21:28:35.517Z,99479.53
2019-04-03T21:31:11.445Z,99467.47
2019-04-03T21:33:41.318Z,99465.27
2019-04-03T21:36:11.106Z,99460.77
2019-04-03T21:38:41.727Z,99461.57
2019-04-03T21:41:12.076Z,99454.59
2019-04-03T21:43:41.854Z,99454.84
2019-04-03T21:46:12.097Z,99458.22
2019-04-03T21:48:44.475Z,99453.52
2019-04-03T21:51:13.364Z,99450.73
2019-04-03T21:53:43.057Z,99458.22
2019-04-03T21:56:13.872Z,99450.73
2019-04-03T21:58:43.713Z,99455.50
2019-04-03T22:01:25.927Z,99457.81
2019-04-03T22:03:55.780Z,99455.20
2019-04-03T22:06:27.813Z,99461.68
2019-04-03T22:09:00.516Z,99474.65
2019-04-03T22:11:29.680Z,99481.69
2019-04-03T22:13:59.432Z,99485.14
2019-04-03T22:16:29.226Z,99487.05
2019-04-03T22:18:59.972Z,99489.34
2019-04-03T22:21:32.202Z,99483.85
2019-04-03T22:24:01.393Z,99490.22
2019-04-03T22:26:31.649Z,99491.94
2019-04-03T22:29:01.751Z,99491.75
2019-04-03T22:31:32.167Z,99488.05
2019-04-03T22:34:02.169Z,99477.65
2019-04-03T22:36:33.695Z,99482.72
2019-04-03T22:39:04.144Z,99481.39
2019-04-03T22:41:35.609Z,99475.67
2019-04-03T22:44:06.025Z,99468.61
2019-04-03T22:46:36.018Z,99461.59
2019-04-03T22:49:07.215Z,99461.00
2019-04-03T22:51:37.703Z,99457.00
2019-04-03T22:54:10.877Z,99458.30
2019-04-03T22:56:41.209Z,99459.03
2019-04-03T22:59:11.042Z,99458.31
2019-04-03T23:01:40.785Z,99443.91
2019-04-03T23:04:14.099Z,99445.87
2019-04-03T23:06:44.478Z,99448.24
2019-04-03T23:09:14.368Z,99469.02
2019-04-03T23:11:45.368Z,99524.35
2019-04-03T23:14:15.086Z,99512.42
2019-04-03T23:16:44.898Z,99486.77
2019-04-03T23:19:17.629Z,99492.34
2019-04-03T23:21:46.033Z,99547.95
2019-04-03T23:24:15.775Z,99538.30
2019-04-03T23:26:45.523Z,99511.73
2019-04-03T23:29:15.156Z,99517.43
2019-04-03T23:31:45.471Z,99522.02
2019-04-03T23:34:18.839Z,99491.59
2019-04-03T23:36:46.850Z,99478.78
2019-04-03T23:39:16.614Z,99490.65
2019-04-03T23:41:46.334Z,99490.72
2019-04-03T23:44:15.992Z,99486.29
2019-04-03T23:46:46.078Z,99488.14
2019-04-03T23:49:15.892Z,99493.13
2019-04-03T23:51:45.647Z,99496.89
2019-04-03T23:54:15.533Z,99486.55
2019-04-03T23:56:45.397Z,99497.30
2019-04-03T23:59:15.120Z,99498.87
